STS Fryderyk Chopin — SPS2298 — position and weather

sailwx.info

Track history (hours):
 
Tides and Currents Weather Stations Pressure Air Temp Water Temp Dewpoint Dewpoint Depression Visibility Wind Speed Wind Dir Waves Ship Positions

STS Fryderyk Chopin (Poland)

Ship's website: http://www.fryderykchopin.pl/

Last reported at 2018-May-23 22:00 UTC. Time now 2018-May-23 22:22 UTC.
Position N 55°41' E 012°36'.

Length 44 m; draft 4.2 m.

Type: Sailing vessel. MMSI: 261000290.

Date/timePositionNaut miles runAvg speedWind from/ knotsBaromVisibWave heightAir tempDewpointWater temp
2018-May-23 22:00N 55°41' E 012°36'0 0.0
2018-May-23 21:30N 55°41' E 012°36'0 0.0
2018-May-23 21:00N 55°41' E 012°36'0 0.0
2018-May-23 20:30N 55°41' E 012°36'0 0.0
2018-May-23 20:00N 55°41' E 012°36'0 0.0
2018-May-23 19:30N 55°41' E 012°36'0 0.0
2018-May-23 19:00N 55°41' E 012°36'0 0.0
2018-May-23 18:30N 55°41' E 012°36'0 0.0
2018-May-23 18:00N 55°41' E 012°36'0 0.0
2018-May-23 17:30N 55°41' E 012°36'0 0.0
2018-May-23 17:00N 55°41' E 012°36'0 0.0
2018-May-23 16:30N 55°41' E 012°36'0 0.0
2018-May-23 16:00N 55°41' E 012°36'0 0.0
2018-May-23 15:30N 55°41' E 012°36'0 0.0
2018-May-23 15:00N 55°41' E 012°36'0 0.0
2018-May-23 14:30N 55°41' E 012°36'0 0.0
2018-May-23 14:00N 55°41' E 012°36'0 0.0
2018-May-23 13:30N 55°41' E 012°36'0 0.0
2018-May-23 13:00N 55°41' E 012°36'0 0.0
2018-May-23 12:30N 55°41' E 012°36'0 0.0
2018-May-23 12:00N 55°41' E 012°36'0 0.0
2018-May-23 11:30N 55°41' E 012°36'0 0.0
2018-May-23 11:00N 55°41' E 012°36'0 0.0
2018-May-23 10:30N 55°41' E 012°36'0 0.0
2018-May-23 10:00N 55°41' E 012°36'0 0.0
2018-May-23 09:30N 55°41' E 012°36'0 0.0
2018-May-23 09:00N 55°41' E 012°36'0 0.0
2018-May-23 08:30N 55°41' E 012°36'0 0.0
2018-May-23 08:00N 55°41' E 012°36'0 0.0
2018-May-23 07:30N 55°41' E 012°36'0 0.0
2018-May-23 07:00N 55°41' E 012°36'0 0.0
2018-May-23 06:30N 55°41' E 012°36'0 0.0
2018-May-23 06:00N 55°41' E 012°36'0 0.0
2018-May-23 05:30N 55°41' E 012°36'0 0.0
2018-May-23 05:00N 55°41' E 012°36'0 0.0
2018-May-23 04:30N 55°41' E 012°36'0 0.0
2018-May-23 04:00N 55°41' E 012°36'0 0.0
2018-May-23 03:30N 55°41' E 012°36'0 0.0
2018-May-23 03:00N 55°41' E 012°36'0 0.0
2018-May-23 02:30N 55°41' E 012°36'0 0.0
2018-May-23 02:00N 55°41' E 012°36'0 0.0
2018-May-23 01:30N 55°41' E 012°36'0 0.0
2018-May-23 01:00N 55°41' E 012°36'0 0.0
2018-May-23 00:30N 55°41' E 012°36'0 0.0
2018-May-23 00:00N 55°41' E 012°36'0 0.0
2018-May-22 23:30N 55°41' E 012°36'0 0.0
2018-May-22 23:00N 55°41' E 012°36'0 0.0
2018-May-22 22:30N 55°41' E 012°36'0 0.0
2018-May-22 22:00N 55°41' E 012°36'0 0.0
2018-May-22 21:30N 55°41' E 012°36'0 0.0
2018-May-22 21:00N 55°41' E 012°36'0 0.0
2018-May-22 20:30N 55°41' E 012°36'0 0.0
2018-May-22 20:00N 55°41' E 012°36'0 0.0
2018-May-22 19:30N 55°41' E 012°36'0 0.0
2018-May-22 19:00N 55°41' E 012°36'0 0.0
2018-May-22 18:30N 55°41' E 012°36'0 0.0
2018-May-22 18:00N 55°41' E 012°36'0 0.0
2018-May-22 17:30N 55°41' E 012°36'0 0.0
2018-May-22 17:00N 55°41' E 012°36'0 0.0
2018-May-22 16:30N 55°41' E 012°36'0 0.0
2018-May-22 16:00N 55°41' E 012°36'2 3.5
2018-May-22 15:30N 55°43' E 012°37'3 6.7
2018-May-22 15:00N 55°46' E 012°40'4 7.2
2018-May-22 14:30N 55°49' E 012°40'4 7.8
2018-May-22 14:00N 55°53' E 012°39'4 8.4
2018-May-22 13:30N 55°57' E 012°38'4 7.8
2018-May-22 13:00N 56°01' E 012°38'3 6.2
2018-May-22 12:30N 56°04' E 012°37'20 4.0
2018-May-22 07:28N 56°21' E 012°19'2 4.0
2018-May-22 07:00N 56°23' E 012°17'3 5.9
2018-May-22 06:30N 56°26' E 012°15'5 6.7
2018-May-22 05:50N 56°30' E 012°11'4 5.7
2018-May-22 05:12N 56°33' E 012°09'4 4.9
2018-May-22 04:28N 56°36' E 012°06'4 4.3
2018-May-22 03:37N 56°40' E 012°03'0 3.8
2018-May-22 03:30N 56°40' E 012°03'2 3.8
2018-May-22 03:00N 56°42' E 012°02'2 4.0
2018-May-22 02:30N 56°44' E 012°02'2 3.9
2018-May-22 02:00N 56°46' E 012°02'10 2.9
2018-May-21 22:41N 56°55' E 012°09'0 1.9
2018-May-21 22:30N 56°55' E 012°08'1 1.7
2018-May-21 21:42N 56°56' E 012°08'0 0.5
2018-May-21 21:28N 56°56' E 012°08'0 0.9
2018-May-21 21:00N 56°57' E 012°08'1 2.5
2018-May-21 20:30N 56°58' E 012°07'1 1.9
2018-May-21 20:00N 56°59' E 012°07'1 1.4
2018-May-21 19:29N 56°59' E 012°06'1 2.0
2018-May-21 19:00N 57°00' E 012°05'1 2.3
2018-May-21 18:30N 57°01' E 012°04'2 3.1
2018-May-21 18:00N 57°02' E 012°01'1 3.0
2018-May-21 17:30N 57°03' E 011°59'0 0.8
2018-May-21 17:00N 57°03' E 011°59'0 0.6
2018-May-21 16:30N 57°03' E 011°58'0 0.8
2018-May-21 16:00N 57°03' E 011°58'0 0.7
2018-May-21 15:30N 57°03' E 011°57'1 1.2
2018-May-21 15:00N 57°03' E 011°56'1 1.2
2018-May-21 14:30N 57°02' E 011°56'1 1.0
2018-May-21 14:00N 57°02' E 011°55'1 1.2
2018-May-21 13:30N 57°02' E 011°54'0 1.0
2018-May-21 13:00N 57°01' E 011°54'1 2.1
2018-May-21 12:30N 57°00' E 011°52'2 2.9
2018-May-21 12:00N 56°60' E 011°50'2 3.5
2018-May-21 11:30N 56°59' E 011°47'3 5.3
2018-May-21 11:00N 57°01' E 011°50'3 5.2
2018-May-21 10:29N 57°03' E 011°53'2 4.4
2018-May-21 10:00N 57°05' E 011°56'2 3.5
2018-May-21 09:30N 57°06' E 011°58'2 3.4
2018-May-21 09:00N 57°07' E 012°00'1 2.8
2018-May-21 08:30N 57°08' E 012°02'1 2.4
2018-May-21 08:00N 57°09' E 012°03'1 2.1
2018-May-21 07:28N 57°10' E 012°05'1 1.9
2018-May-21 07:00N 57°10' E 012°06'2 3.9
2018-May-21 06:30N 57°12' E 012°08'1 0.9
2018-May-21 05:57N 57°12' E 012°09'0 0.0
2018-May-21 05:30N 57°12' E 012°09'0 0.0
2018-May-21 05:00N 57°12' E 012°09'0 0.0
2018-May-21 04:30N 57°12' E 012°09'0 0.0
2018-May-21 04:00N 57°12' E 012°09'0 0.0
2018-May-21 03:30N 57°12' E 012°09'0 0.0
2018-May-21 03:00N 57°12' E 012°09'0 0.0
2018-May-21 02:24N 57°12' E 012°09'0 0.0
2018-May-21 02:00N 57°12' E 012°09'0 0.0
2018-May-21 01:30N 57°12' E 012°09'0 0.0
2018-May-21 01:00N 57°12' E 012°09'0 0.0
2018-May-21 00:27N 57°12' E 012°09'0 0.0
2018-May-20 23:57N 57°12' E 012°09'0 0.0
2018-May-20 23:30N 57°12' E 012°09'0 0.0
2018-May-20 22:57N 57°12' E 012°09'0 0.1
2018-May-20 22:30N 57°12' E 012°09'0 0.0
2018-May-20 21:57N 57°12' E 012°09'0 0.0
2018-May-20 21:30N 57°12' E 012°09'0 0.1
2018-May-20 20:57N 57°12' E 012°09'0 0.0
2018-May-20 20:21N 57°12' E 012°09'0 0.0
2018-May-20 20:00N 57°12' E 012°09'0 0.0
2018-May-20 19:09N 57°12' E 012°09'0 0.0
2018-May-20 18:57N 57°12' E 012°09'0 0.0
2018-May-20 18:30N 57°12' E 012°09'0 0.0
2018-May-20 17:57N 57°12' E 012°09'0 0.3
2018-May-20 17:30N 57°12' E 012°09'4 8.2
2018-May-20 17:00N 57°12' E 012°01'4 8.1
2018-May-20 16:30N 57°12' E 011°54'1 2.8
2018-May-20 16:00N 57°12' E 011°51'0 0.5
2018-May-20 15:30N 57°12' E 011°51'1 2.0
2018-May-20 15:00N 57°12' E 011°50'1 3.0
2018-May-20 14:30N 57°14' E 011°49'2 3.4
2018-May-20 14:00N 57°15' E 011°47'2 3.3
2018-May-20 13:30N 57°17' E 011°45'2 3.3
2018-May-20 13:00N 57°18' E 011°43'2 3.1
2018-May-20 12:31N 57°18' E 011°40'2 3.2
2018-May-20 12:01N 57°19' E 011°37'2 3.4
2018-May-20 11:30N 57°19' E 011°34'2 3.9
2018-May-20 11:00N 57°19' E 011°31'2 3.4
2018-May-20 10:30N 57°20' E 011°28'2 3.8
2018-May-20 10:00N 57°21' E 011°24'2 3.9
2018-May-20 09:30N 57°21' E 011°21'2 3.5
2018-May-20 09:00N 57°21' E 011°18'0 0.9
2018-May-20 08:30N 57°21' E 011°17'0 0.8
2018-May-20 08:00N 57°21' E 011°16'1 1.1
2018-May-20 07:30N 57°21' E 011°15'1 2.5
2018-May-20 07:01N 57°22' E 011°13'4 6.7
2018-May-20 06:26N 57°20' E 011°07'0 0.1
2018-May-20 06:00N 57°20' E 011°07'0 0.0
2018-May-20 05:30N 57°20' E 011°07'0 0.0
2018-May-20 05:00N 57°20' E 011°07'0 0.0
2018-May-20 04:30N 57°20' E 011°07'0 0.0
2018-May-20 03:54N 57°20' E 011°07'0 0.0
2018-May-20 03:30N 57°20' E 011°07'0 0.0
2018-May-20 03:00N 57°20' E 011°07'0 0.0
2018-May-20 02:30N 57°20' E 011°07'0 0.0
2018-May-20 02:00N 57°20' E 011°07'0 0.0
2018-May-20 01:30N 57°20' E 011°07'0 0.0
2018-May-20 01:00N 57°20' E 011°07'0 0.0
2018-May-20 00:30N 57°20' E 011°07'0 0.0
2018-May-20 00:00N 57°20' E 011°07'0 0.0
2018-May-19 23:30N 57°20' E 011°07'0 0.1
2018-May-19 23:00N 57°20' E 011°07'0 0.0
2018-May-19 22:30N 57°20' E 011°07'0 0.0
2018-May-19 22:00N 57°20' E 011°07'0 0.0
2018-May-19 21:30N 57°20' E 011°07'0 0.0
2018-May-19 21:00N 57°20' E 011°07'0 0.0
2018-May-19 20:30N 57°20' E 011°07'0 0.0
2018-May-19 20:00N 57°20' E 011°07'0 0.0
2018-May-19 19:30N 57°20' E 011°07'0 0.0
2018-May-19 19:00N 57°20' E 011°07'0 0.0
2018-May-19 18:30N 57°20' E 011°07'0 0.0
2018-May-19 18:00N 57°20' E 011°07'0 0.0
2018-May-19 17:30N 57°20' E 011°07'0 0.0
2018-May-19 17:00N 57°20' E 011°07'0 0.0
2018-May-19 16:30N 57°20' E 011°07'0 0.1
2018-May-19 16:00N 57°20' E 011°07'0 0.0
2018-May-19 15:30N 57°20' E 011°07'0 0.0
2018-May-19 14:57N 57°20' E 011°07'0 0.0
2018-May-19 14:30N 57°20' E 011°07'0 0.0
2018-May-19 14:00N 57°20' E 011°07'0 0.0
2018-May-19 13:27N 57°20' E 011°07'0 0.0
2018-May-19 13:00N 57°20' E 011°07'0 0.0
2018-May-19 12:30N 57°20' E 011°07'0 0.5
2018-May-19 12:01N 57°20' E 011°07'4 8.2
2018-May-19 11:30N 57°24' E 011°03'4 7.8
2018-May-19 11:01N 57°27' E 010°59'4 7.7
2018-May-19 10:30N 57°30' E 010°55'4 7.6
2018-May-19 10:01N 57°33' E 010°51'4 7.8
2018-May-19 09:31N 57°36' E 010°47'4 7.9
2018-May-19 09:00N 57°39' E 010°42'2 4.7
2018-May-19 08:30N 57°41' E 010°38'1 1.1
2018-May-19 08:00N 57°41' E 010°39'0 0.9
2018-May-19 07:31N 57°41' E 010°40'3 5.9
2018-May-19 06:59N 57°43' E 010°35'0 0.0
2018-May-19 06:29N 57°43' E 010°35'0 0.0
2018-May-19 05:55N 57°43' E 010°35'0 0.0
2018-May-19 05:29N 57°43' E 010°35'0 0.0
2018-May-19 04:59N 57°43' E 010°35'0 0.0
2018-May-19 04:29N 57°43' E 010°35'0 0.0
2018-May-19 03:59N 57°43' E 010°35'0 0.0
2018-May-19 03:29N 57°43' E 010°35'0 0.0
2018-May-19 02:58N 57°43' E 010°35'0 0.0
2018-May-19 02:29N 57°43' E 010°35'0 0.0
2018-May-19 01:56N 57°43' E 010°35'0 0.0
2018-May-19 01:29N 57°43' E 010°35'0 0.0
2018-May-19 00:55N 57°43' E 010°35'0 0.0
2018-May-19 00:26N 57°43' E 010°35'0 0.0
2018-May-18 23:55N 57°43' E 010°35'0 0.0
2018-May-18 23:28N 57°43' E 010°35'0 0.0
2018-May-18 22:59N 57°43' E 010°35'0 0.0
2018-May-18 22:28N 57°43' E 010°35'0 0.0
2018-May-18 21:58N 57°43' E 010°35'0 0.0
2018-May-18 21:29N 57°43' E 010°35'0 0.0
2018-May-18 20:59N 57°43' E 010°35'0 0.0
2018-May-18 20:29N 57°43' E 010°35'0 0.0
2018-May-18 19:59N 57°43' E 010°35'0 0.0
2018-May-18 19:28N 57°43' E 010°35'0 0.0
2018-May-18 18:58N 57°43' E 010°35'0 0.0
2018-May-18 18:29N 57°43' E 010°35'0 0.0
2018-May-18 17:59N 57°43' E 010°35'0 0.0
2018-May-18 17:29N 57°43' E 010°35'0 0.0
2018-May-18 16:59N 57°43' E 010°35'0 0.0
2018-May-18 16:29N 57°43' E 010°35'0 0.0
2018-May-18 15:55N 57°43' E 010°35'0 0.0
2018-May-18 15:28N 57°43' E 010°35'0 0.0
2018-May-18 14:56N 57°43' E 010°35'0 0.0
2018-May-18 14:25N 57°43' E 010°35'0 0.0
2018-May-18 13:59N 57°43' E 010°35'0 0.0
2018-May-18 13:29N 57°43' E 010°35'0 0.0
2018-May-18 12:49N 57°43' E 010°35'0 0.0
2018-May-18 12:26N 57°43' E 010°35'0 0.0
2018-May-18 11:58N 57°43' E 010°35'0 0.0
2018-May-18 11:29N 57°43' E 010°35'0 0.0
2018-May-18 10:59N 57°43' E 010°35'0 0.0
2018-May-18 10:29N 57°43' E 010°35'0 0.0
2018-May-18 09:58N 57°43' E 010°35'0 0.0
2018-May-18 09:29N 57°43' E 010°35'0 0.0
2018-May-18 08:58N 57°43' E 010°35'0 0.0
2018-May-18 08:25N 57°43' E 010°35'0 0.0
2018-May-18 07:52N 57°43' E 010°35'0 0.0
2018-May-18 07:29N 57°43' E 010°35'0 0.0
2018-May-18 06:55N 57°43' E 010°35'0 0.0
2018-May-18 06:29N 57°43' E 010°35'0 0.0
2018-May-18 05:59N 57°43' E 010°35'0 0.0
2018-May-18 05:29N 57°43' E 010°35'0 0.0
2018-May-18 04:59N 57°43' E 010°35'0 0.0
2018-May-18 04:26N 57°43' E 010°35'0 0.0
2018-May-18 03:58N 57°43' E 010°35'0 0.0
2018-May-18 03:29N 57°43' E 010°35'0 0.0
2018-May-18 02:58N 57°43' E 010°35'0 0.0
2018-May-18 02:29N 57°43' E 010°35'0 0.0
2018-May-18 01:55N 57°43' E 010°35'0 0.0
2018-May-18 01:28N 57°43' E 010°35'0 0.0
2018-May-18 00:59N 57°43' E 010°35'0 0.0
2018-May-18 00:17N 57°43' E 010°35'0 0.0
2018-May-17 23:58N 57°43' E 010°35'0 0.0
2018-May-17 23:28N 57°43' E 010°35'0 0.0
2018-May-17 22:58N 57°43' E 010°35'0 0.0
2018-May-17 22:29N 57°43' E 010°35'0 0.0
2018-May-17 21:58N 57°43' E 010°35'0 0.0
2018-May-17 21:22N 57°43' E 010°35'0 0.0
2018-May-17 20:58N 57°43' E 010°35'0 0.0
2018-May-17 20:25N 57°43' E 010°35'0 0.0
2018-May-17 19:58N 57°43' E 010°35'0 0.0
2018-May-17 19:29N 57°43' E 010°35'0 0.0
2018-May-17 18:59N 57°43' E 010°35'0 0.0
2018-May-17 18:28N 57°43' E 010°35'0 0.0
2018-May-17 17:59N 57°43' E 010°35'0 0.0
2018-May-17 17:26N 57°43' E 010°35'0 0.0
2018-May-17 16:55N 57°43' E 010°35'0 0.0
2018-May-17 16:29N 57°43' E 010°35'0 0.0
2018-May-17 15:58N 57°43' E 010°35'0 0.0
2018-May-17 15:29N 57°43' E 010°35'0 0.0
2018-May-17 14:59N 57°43' E 010°35'2 4.3
2018-May-17 14:30N 57°44' E 010°39'2 4.7
2018-May-17 14:00N 57°45' E 010°43'2 3.6
2018-May-17 13:30N 57°47' E 010°42'3 5.1
2018-May-17 13:00N 57°48' E 010°38'3 5.5
2018-May-17 12:29N 57°49' E 010°33'51 4.5
2018-May-17 01:03N 58°05' E 009°02'0 4.0
2018-May-17 00:59N 58°05' E 009°01'2 3.9
2018-May-17 00:29N 58°06' E 008°59'2 4.1
2018-May-17 00:00N 58°08' E 008°56'2 4.0
2018-May-16 23:30N 58°09' E 008°53'2 4.0
2018-May-16 23:00N 58°10' E 008°50'2 3.2
2018-May-16 22:30N 58°12' E 008°48'1 2.7
2018-May-16 22:00N 58°12' E 008°46'3 6.9
2018-May-16 21:30N 58°10' E 008°40'4 7.5
2018-May-16 21:00N 58°09' E 008°34'4 7.6
2018-May-16 20:30N 58°07' E 008°27'2 3.4
2018-May-16 20:00N 58°06' E 008°24'1 1.6
2018-May-16 19:30N 58°07' E 008°24'1 2.1
2018-May-16 19:00N 58°08' E 008°24'0 0.9
2018-May-16 18:30N 58°08' E 008°25'0 0.7
2018-May-16 18:00N 58°08' E 008°26'0 0.8
2018-May-16 17:30N 58°08' E 008°27'0 0.2
2018-May-16 17:00N 58°08' E 008°27'1 1.4
2018-May-16 16:30N 58°08' E 008°26'1 1.8
2018-May-16 16:00N 58°07' E 008°25'1 2.3
2018-May-16 15:31N 58°06' E 008°23'1 2.4
2018-May-16 15:00N 58°06' E 008°21'1 2.8
2018-May-16 14:30N 58°05' E 008°19'2 3.4
2018-May-16 14:00N 58°04' E 008°17'2 4.1
2018-May-16 13:29N 58°03' E 008°13'29 5.5
2018-May-16 08:12N 57°50' E 007°23'1 6.1
2018-May-16 07:58N 57°50' E 007°21'5 6.3
2018-May-16 07:13N 57°48' E 007°13'2 6.7
2018-May-16 06:58N 57°47' E 007°11'3 6.4
2018-May-16 06:28N 57°45' E 007°06'3 6.6
2018-May-16 06:00N 57°42' E 007°02'5 6.7
2018-May-16 05:16N 57°39' E 006°55'3 7.0
2018-May-16 04:51N 57°37' E 006°51'3 6.8
2018-May-16 04:25N 57°35' E 006°47'3 6.9
2018-May-16 04:01N 57°33' E 006°44'7 8.5
2018-May-16 03:11N 57°28' E 006°35'2 8.5
2018-May-16 02:59N 57°27' E 006°33'4 7.2
2018-May-16 02:29N 57°24' E 006°28'27 6.1
2018-May-15 22:07N 57°06' E 005°51'71 1.9
2018-May-14 08:45N 55°55' E 005°49'2 5.3
2018-May-14 08:26N 55°54' E 005°48'  
Track history (hours):
 
Tides and Currents Weather Stations Pressure Air Temp Water Temp Dewpoint Dewpoint Depression Visibility Wind Speed Wind Dir Waves Ship Positions

STS Fryderyk Chopin (Poland)

Ship's website: http://www.fryderykchopin.pl/

Last reported at 2018-May-23 22:00 UTC. Time now 2018-May-23 22:22 UTC.
Position N 55°41' E 012°36'.

Length 44 m; draft 4.2 m.

Type: Sailing vessel. MMSI: 261000290.

Date/timePositionNaut miles runAvg speedWind from/ knotsBaromVisibWave heightAir tempDewpointWater temp
2018-May-23 22:00N 55°41' E 012°36'0 0.0
2018-May-23 21:30N 55°41' E 012°36'0 0.0
2018-May-23 21:00N 55°41' E 012°36'0 0.0
2018-May-23 20:30N 55°41' E 012°36'0 0.0
2018-May-23 20:00N 55°41' E 012°36'0 0.0
2018-May-23 19:30N 55°41' E 012°36'0 0.0
2018-May-23 19:00N 55°41' E 012°36'0 0.0
2018-May-23 18:30N 55°41' E 012°36'0 0.0
2018-May-23 18:00N 55°41' E 012°36'0 0.0
2018-May-23 17:30N 55°41' E 012°36'0 0.0
2018-May-23 17:00N 55°41' E 012°36'0 0.0
2018-May-23 16:30N 55°41' E 012°36'0 0.0
2018-May-23 16:00N 55°41' E 012°36'0 0.0
2018-May-23 15:30N 55°41' E 012°36'0 0.0
2018-May-23 15:00N 55°41' E 012°36'0 0.0
2018-May-23 14:30N 55°41' E 012°36'0 0.0
2018-May-23 14:00N 55°41' E 012°36'0 0.0
2018-May-23 13:30N 55°41' E 012°36'0 0.0
2018-May-23 13:00N 55°41' E 012°36'0 0.0
2018-May-23 12:30N 55°41' E 012°36'0 0.0
2018-May-23 12:00N 55°41' E 012°36'0 0.0
2018-May-23 11:30N 55°41' E 012°36'0 0.0
2018-May-23 11:00N 55°41' E 012°36'0 0.0
2018-May-23 10:30N 55°41' E 012°36'0 0.0
2018-May-23 10:00N 55°41' E 012°36'0 0.0
2018-May-23 09:30N 55°41' E 012°36'0 0.0
2018-May-23 09:00N 55°41' E 012°36'0 0.0
2018-May-23 08:30N 55°41' E 012°36'0 0.0
2018-May-23 08:00N 55°41' E 012°36'0 0.0
2018-May-23 07:30N 55°41' E 012°36'0 0.0
2018-May-23 07:00N 55°41' E 012°36'0 0.0
2018-May-23 06:30N 55°41' E 012°36'0 0.0
2018-May-23 06:00N 55°41' E 012°36'0 0.0
2018-May-23 05:30N 55°41' E 012°36'0 0.0
2018-May-23 05:00N 55°41' E 012°36'0 0.0
2018-May-23 04:30N 55°41' E 012°36'0 0.0
2018-May-23 04:00N 55°41' E 012°36'0 0.0
2018-May-23 03:30N 55°41' E 012°36'0 0.0
2018-May-23 03:00N 55°41' E 012°36'0 0.0
2018-May-23 02:30N 55°41' E 012°36'0 0.0
2018-May-23 02:00N 55°41' E 012°36'0 0.0
2018-May-23 01:30N 55°41' E 012°36'0 0.0
2018-May-23 01:00N 55°41' E 012°36'0 0.0
2018-May-23 00:30N 55°41' E 012°36'0 0.0
2018-May-23 00:00N 55°41' E 012°36'0 0.0
2018-May-22 23:30N 55°41' E 012°36'0 0.0
2018-May-22 23:00N 55°41' E 012°36'0 0.0
2018-May-22 22:30N 55°41' E 012°36'0 0.0
2018-May-22 22:00N 55°41' E 012°36'0 0.0
2018-May-22 21:30N 55°41' E 012°36'0 0.0
2018-May-22 21:00N 55°41' E 012°36'0 0.0
2018-May-22 20:30N 55°41' E 012°36'0 0.0
2018-May-22 20:00N 55°41' E 012°36'0 0.0
2018-May-22 19:30N 55°41' E 012°36'0 0.0
2018-May-22 19:00N 55°41' E 012°36'0 0.0
2018-May-22 18:30N 55°41' E 012°36'0 0.0
2018-May-22 18:00N 55°41' E 012°36'0 0.0
2018-May-22 17:30N 55°41' E 012°36'0 0.0
2018-May-22 17:00N 55°41' E 012°36'0 0.0
2018-May-22 16:30N 55°41' E 012°36'0 0.0
2018-May-22 16:00N 55°41' E 012°36'2 3.5
2018-May-22 15:30N 55°43' E 012°37'3 6.7
2018-May-22 15:00N 55°46' E 012°40'4 7.2
2018-May-22 14:30N 55°49' E 012°40'4 7.8
2018-May-22 14:00N 55°53' E 012°39'4 8.4
2018-May-22 13:30N 55°57' E 012°38'4 7.8
2018-May-22 13:00N 56°01' E 012°38'3 6.2
2018-May-22 12:30N 56°04' E 012°37'20 4.0
2018-May-22 07:28N 56°21' E 012°19'2 4.0
2018-May-22 07:00N 56°23' E 012°17'3 5.9
2018-May-22 06:30N 56°26' E 012°15'5 6.7
2018-May-22 05:50N 56°30' E 012°11'4 5.7
2018-May-22 05:12N 56°33' E 012°09'4 4.9
2018-May-22 04:28N 56°36' E 012°06'4 4.3
2018-May-22 03:37N 56°40' E 012°03'0 3.8
2018-May-22 03:30N 56°40' E 012°03'2 3.8
2018-May-22 03:00N 56°42' E 012°02'2 4.0
2018-May-22 02:30N 56°44' E 012°02'2 3.9
2018-May-22 02:00N 56°46' E 012°02'10 2.9
2018-May-21 22:41N 56°55' E 012°09'0 1.9
2018-May-21 22:30N 56°55' E 012°08'1 1.7
2018-May-21 21:42N 56°56' E 012°08'0 0.5
2018-May-21 21:28N 56°56' E 012°08'0 0.9
2018-May-21 21:00N 56°57' E 012°08'1 2.5
2018-May-21 20:30N 56°58' E 012°07'1 1.9
2018-May-21 20:00N 56°59' E 012°07'1 1.4
2018-May-21 19:29N 56°59' E 012°06'1 2.0
2018-May-21 19:00N 57°00' E 012°05'1 2.3
2018-May-21 18:30N 57°01' E 012°04'2 3.1
2018-May-21 18:00N 57°02' E 012°01'1 3.0
2018-May-21 17:30N 57°03' E 011°59'0 0.8
2018-May-21 17:00N 57°03' E 011°59'0 0.6
2018-May-21 16:30N 57°03' E 011°58'0 0.8
2018-May-21 16:00N 57°03' E 011°58'0 0.7
2018-May-21 15:30N 57°03' E 011°57'1 1.2
2018-May-21 15:00N 57°03' E 011°56'1 1.2
2018-May-21 14:30N 57°02' E 011°56'1 1.0
2018-May-21 14:00N 57°02' E 011°55'1 1.2
2018-May-21 13:30N 57°02' E 011°54'0 1.0
2018-May-21 13:00N 57°01' E 011°54'1 2.1
2018-May-21 12:30N 57°00' E 011°52'2 2.9
2018-May-21 12:00N 56°60' E 011°50'2 3.5
2018-May-21 11:30N 56°59' E 011°47'3 5.3
2018-May-21 11:00N 57°01' E 011°50'3 5.2
2018-May-21 10:29N 57°03' E 011°53'2 4.4
2018-May-21 10:00N 57°05' E 011°56'2 3.5
2018-May-21 09:30N 57°06' E 011°58'2 3.4
2018-May-21 09:00N 57°07' E 012°00'1 2.8
2018-May-21 08:30N 57°08' E 012°02'1 2.4
2018-May-21 08:00N 57°09' E 012°03'1 2.1
2018-May-21 07:28N 57°10' E 012°05'1 1.9
2018-May-21 07:00N 57°10' E 012°06'2 3.9
2018-May-21 06:30N 57°12' E 012°08'1 0.9
2018-May-21 05:57N 57°12' E 012°09'0 0.0
2018-May-21 05:30N 57°12' E 012°09'0 0.0
2018-May-21 05:00N 57°12' E 012°09'0 0.0
2018-May-21 04:30N 57°12' E 012°09'0 0.0
2018-May-21 04:00N 57°12' E 012°09'0 0.0
2018-May-21 03:30N 57°12' E 012°09'0 0.0
2018-May-21 03:00N 57°12' E 012°09'0 0.0
2018-May-21 02:24N 57°12' E 012°09'0 0.0
2018-May-21 02:00N 57°12' E 012°09'0 0.0
2018-May-21 01:30N 57°12' E 012°09'0 0.0
2018-May-21 01:00N 57°12' E 012°09'0 0.0
2018-May-21 00:27N 57°12' E 012°09'0 0.0
2018-May-20 23:57N 57°12' E 012°09'0 0.0
2018-May-20 23:30N 57°12' E 012°09'0 0.0
2018-May-20 22:57N 57°12' E 012°09'0 0.1
2018-May-20 22:30N 57°12' E 012°09'0 0.0
2018-May-20 21:57N 57°12' E 012°09'0 0.0
2018-May-20 21:30N 57°12' E 012°09'0 0.1
2018-May-20 20:57N 57°12' E 012°09'0 0.0
2018-May-20 20:21N 57°12' E 012°09'0 0.0
2018-May-20 20:00N 57°12' E 012°09'0 0.0
2018-May-20 19:09N 57°12' E 012°09'0 0.0
2018-May-20 18:57N 57°12' E 012°09'0 0.0
2018-May-20 18:30N 57°12' E 012°09'0 0.0
2018-May-20 17:57N 57°12' E 012°09'0 0.3
2018-May-20 17:30N 57°12' E 012°09'4 8.2
2018-May-20 17:00N 57°12' E 012°01'4 8.1
2018-May-20 16:30N 57°12' E 011°54'1 2.8
2018-May-20 16:00N 57°12' E 011°51'0 0.5
2018-May-20 15:30N 57°12' E 011°51'1 2.0
2018-May-20 15:00N 57°12' E 011°50'1 3.0
2018-May-20 14:30N 57°14' E 011°49'2 3.4
2018-May-20 14:00N 57°15' E 011°47'2 3.3
2018-May-20 13:30N 57°17' E 011°45'2 3.3
2018-May-20 13:00N 57°18' E 011°43'2 3.1
2018-May-20 12:31N 57°18' E 011°40'2 3.2
2018-May-20 12:01N 57°19' E 011°37'2 3.4
2018-May-20 11:30N 57°19' E 011°34'2 3.9
2018-May-20 11:00N 57°19' E 011°31'2 3.4
2018-May-20 10:30N 57°20' E 011°28'2 3.8
2018-May-20 10:00N 57°21' E 011°24'2 3.9
2018-May-20 09:30N 57°21' E 011°21'2 3.5
2018-May-20 09:00N 57°21' E 011°18'0 0.9
2018-May-20 08:30N 57°21' E 011°17'0 0.8
2018-May-20 08:00N 57°21' E 011°16'1 1.1
2018-May-20 07:30N 57°21' E 011°15'1 2.5
2018-May-20 07:01N 57°22' E 011°13'4 6.7
2018-May-20 06:26N 57°20' E 011°07'0 0.1
2018-May-20 06:00N 57°20' E 011°07'0 0.0
2018-May-20 05:30N 57°20' E 011°07'0 0.0
2018-May-20 05:00N 57°20' E 011°07'0 0.0
2018-May-20 04:30N 57°20' E 011°07'0 0.0
2018-May-20 03:54N 57°20' E 011°07'0 0.0
2018-May-20 03:30N 57°20' E 011°07'0 0.0
2018-May-20 03:00N 57°20' E 011°07'0 0.0
2018-May-20 02:30N 57°20' E 011°07'0 0.0
2018-May-20 02:00N 57°20' E 011°07'0 0.0
2018-May-20 01:30N 57°20' E 011°07'0 0.0
2018-May-20 01:00N 57°20' E 011°07'0 0.0
2018-May-20 00:30N 57°20' E 011°07'0 0.0
2018-May-20 00:00N 57°20' E 011°07'0 0.0
2018-May-19 23:30N 57°20' E 011°07'0 0.1
2018-May-19 23:00N 57°20' E 011°07'0 0.0
2018-May-19 22:30N 57°20' E 011°07'0 0.0
2018-May-19 22:00N 57°20' E 011°07'0 0.0
2018-May-19 21:30N 57°20' E 011°07'0 0.0
2018-May-19 21:00N 57°20' E 011°07'0 0.0
2018-May-19 20:30N 57°20' E 011°07'0 0.0
2018-May-19 20:00N 57°20' E 011°07'0 0.0
2018-May-19 19:30N 57°20' E 011°07'0 0.0
2018-May-19 19:00N 57°20' E 011°07'0 0.0
2018-May-19 18:30N 57°20' E 011°07'0 0.0
2018-May-19 18:00N 57°20' E 011°07'0 0.0
2018-May-19 17:30N 57°20' E 011°07'0 0.0
2018-May-19 17:00N 57°20' E 011°07'0 0.0
2018-May-19 16:30N 57°20' E 011°07'0 0.1
2018-May-19 16:00N 57°20' E 011°07'0 0.0
2018-May-19 15:30N 57°20' E 011°07'0 0.0
2018-May-19 14:57N 57°20' E 011°07'0 0.0
2018-May-19 14:30N 57°20' E 011°07'0 0.0
2018-May-19 14:00N 57°20' E 011°07'0 0.0
2018-May-19 13:27N 57°20' E 011°07'0 0.0
2018-May-19 13:00N 57°20' E 011°07'0 0.0
2018-May-19 12:30N 57°20' E 011°07'0 0.5
2018-May-19 12:01N 57°20' E 011°07'4 8.2
2018-May-19 11:30N 57°24' E 011°03'4 7.8
2018-May-19 11:01N 57°27' E 010°59'4 7.7
2018-May-19 10:30N 57°30' E 010°55'4 7.6
2018-May-19 10:01N 57°33' E 010°51'4 7.8
2018-May-19 09:31N 57°36' E 010°47'4 7.9
2018-May-19 09:00N 57°39' E 010°42'2 4.7
2018-May-19 08:30N 57°41' E 010°38'1 1.1
2018-May-19 08:00N 57°41' E 010°39'0 0.9
2018-May-19 07:31N 57°41' E 010°40'3 5.9
2018-May-19 06:59N 57°43' E 010°35'0 0.0
2018-May-19 06:29N 57°43' E 010°35'0 0.0
2018-May-19 05:55N 57°43' E 010°35'0 0.0
2018-May-19 05:29N 57°43' E 010°35'0 0.0
2018-May-19 04:59N 57°43' E 010°35'0 0.0
2018-May-19 04:29N 57°43' E 010°35'0 0.0
2018-May-19 03:59N 57°43' E 010°35'0 0.0
2018-May-19 03:29N 57°43' E 010°35'0 0.0
2018-May-19 02:58N 57°43' E 010°35'0 0.0
2018-May-19 02:29N 57°43' E 010°35'0 0.0
2018-May-19 01:56N 57°43' E 010°35'0 0.0
2018-May-19 01:29N 57°43' E 010°35'0 0.0
2018-May-19 00:55N 57°43' E 010°35'0 0.0
2018-May-19 00:26N 57°43' E 010°35'0 0.0
2018-May-18 23:55N 57°43' E 010°35'0 0.0
2018-May-18 23:28N 57°43' E 010°35'0 0.0
2018-May-18 22:59N 57°43' E 010°35'0 0.0
2018-May-18 22:28N 57°43' E 010°35'0 0.0
2018-May-18 21:58N 57°43' E 010°35'0 0.0
2018-May-18 21:29N 57°43' E 010°35'0 0.0
2018-May-18 20:59N 57°43' E 010°35'0 0.0
2018-May-18 20:29N 57°43' E 010°35'0 0.0
2018-May-18 19:59N 57°43' E 010°35'0 0.0
2018-May-18 19:28N 57°43' E 010°35'0 0.0
2018-May-18 18:58N 57°43' E 010°35'0 0.0
2018-May-18 18:29N 57°43' E 010°35'0 0.0
2018-May-18 17:59N 57°43' E 010°35'0 0.0
2018-May-18 17:29N 57°43' E 010°35'0 0.0
2018-May-18 16:59N 57°43' E 010°35'0 0.0
2018-May-18 16:29N 57°43' E 010°35'0 0.0
2018-May-18 15:55N 57°43' E 010°35'0 0.0
2018-May-18 15:28N 57°43' E 010°35'0 0.0
2018-May-18 14:56N 57°43' E 010°35'0 0.0
2018-May-18 14:25N 57°43' E 010°35'0 0.0
2018-May-18 13:59N 57°43' E 010°35'0 0.0
2018-May-18 13:29N 57°43' E 010°35'0 0.0
2018-May-18 12:49N 57°43' E 010°35'0 0.0
2018-May-18 12:26N 57°43' E 010°35'0 0.0
2018-May-18 11:58N 57°43' E 010°35'0 0.0
2018-May-18 11:29N 57°43' E 010°35'0 0.0
2018-May-18 10:59N 57°43' E 010°35'0 0.0
2018-May-18 10:29N 57°43' E 010°35'0 0.0
2018-May-18 09:58N 57°43' E 010°35'0 0.0
2018-May-18 09:29N 57°43' E 010°35'0 0.0
2018-May-18 08:58N 57°43' E 010°35'0 0.0
2018-May-18 08:25N 57°43' E 010°35'0 0.0
2018-May-18 07:52N 57°43' E 010°35'0 0.0
2018-May-18 07:29N 57°43' E 010°35'0 0.0
2018-May-18 06:55N 57°43' E 010°35'0 0.0
2018-May-18 06:29N 57°43' E 010°35'0 0.0
2018-May-18 05:59N 57°43' E 010°35'0 0.0
2018-May-18 05:29N 57°43' E 010°35'0 0.0
2018-May-18 04:59N 57°43' E 010°35'0 0.0
2018-May-18 04:26N 57°43' E 010°35'0 0.0
2018-May-18 03:58N 57°43' E 010°35'0 0.0
2018-May-18 03:29N 57°43' E 010°35'0 0.0
2018-May-18 02:58N 57°43' E 010°35'0 0.0
2018-May-18 02:29N 57°43' E 010°35'0 0.0
2018-May-18 01:55N 57°43' E 010°35'0 0.0
2018-May-18 01:28N 57°43' E 010°35'0 0.0
2018-May-18 00:59N 57°43' E 010°35'0 0.0
2018-May-18 00:17N 57°43' E 010°35'0 0.0
2018-May-17 23:58N 57°43' E 010°35'0 0.0
2018-May-17 23:28N 57°43' E 010°35'0 0.0
2018-May-17 22:58N 57°43' E 010°35'0 0.0
2018-May-17 22:29N 57°43' E 010°35'0 0.0
2018-May-17 21:58N 57°43' E 010°35'0 0.0
2018-May-17 21:22N 57°43' E 010°35'0 0.0
2018-May-17 20:58N 57°43' E 010°35'0 0.0
2018-May-17 20:25N 57°43' E 010°35'0 0.0
2018-May-17 19:58N 57°43' E 010°35'0 0.0
2018-May-17 19:29N 57°43' E 010°35'0 0.0
2018-May-17 18:59N 57°43' E 010°35'0 0.0
2018-May-17 18:28N 57°43' E 010°35'0 0.0
2018-May-17 17:59N 57°43' E 010°35'0 0.0
2018-May-17 17:26N 57°43' E 010°35'0 0.0
2018-May-17 16:55N 57°43' E 010°35'0 0.0
2018-May-17 16:29N 57°43' E 010°35'0 0.0
2018-May-17 15:58N 57°43' E 010°35'0 0.0
2018-May-17 15:29N 57°43' E 010°35'0 0.0
2018-May-17 14:59N 57°43' E 010°35'2 4.3
2018-May-17 14:30N 57°44' E 010°39'2 4.7
2018-May-17 14:00N 57°45' E 010°43'2 3.6
2018-May-17 13:30N 57°47' E 010°42'3 5.1
2018-May-17 13:00N 57°48' E 010°38'3 5.5
2018-May-17 12:29N 57°49' E 010°33'51 4.5
2018-May-17 01:03N 58°05' E 009°02'0 4.0
2018-May-17 00:59N 58°05' E 009°01'2 3.9
2018-May-17 00:29N 58°06' E 008°59'2 4.1
2018-May-17 00:00N 58°08' E 008°56'2 4.0
2018-May-16 23:30N 58°09' E 008°53'2 4.0
2018-May-16 23:00N 58°10' E 008°50'2 3.2
2018-May-16 22:30N 58°12' E 008°48'1 2.7
2018-May-16 22:00N 58°12' E 008°46'3 6.9
2018-May-16 21:30N 58°10' E 008°40'4 7.5
2018-May-16 21:00N 58°09' E 008°34'4 7.6
2018-May-16 20:30N 58°07' E 008°27'2 3.4
2018-May-16 20:00N 58°06' E 008°24'1 1.6
2018-May-16 19:30N 58°07' E 008°24'1 2.1
2018-May-16 19:00N 58°08' E 008°24'0 0.9
2018-May-16 18:30N 58°08' E 008°25'0 0.7
2018-May-16 18:00N 58°08' E 008°26'0 0.8
2018-May-16 17:30N 58°08' E 008°27'0 0.2
2018-May-16 17:00N 58°08' E 008°27'1 1.4
2018-May-16 16:30N 58°08' E 008°26'1 1.8
2018-May-16 16:00N 58°07' E 008°25'1 2.3
2018-May-16 15:31N 58°06' E 008°23'1 2.4
2018-May-16 15:00N 58°06' E 008°21'1 2.8
2018-May-16 14:30N 58°05' E 008°19'2 3.4
2018-May-16 14:00N 58°04' E 008°17'2 4.1
2018-May-16 13:29N 58°03' E 008°13'29 5.5
2018-May-16 08:12N 57°50' E 007°23'1 6.1
2018-May-16 07:58N 57°50' E 007°21'5 6.3
2018-May-16 07:13N 57°48' E 007°13'2 6.7
2018-May-16 06:58N 57°47' E 007°11'3 6.4
2018-May-16 06:28N 57°45' E 007°06'3 6.6
2018-May-16 06:00N 57°42' E 007°02'5 6.7
2018-May-16 05:16N 57°39' E 006°55'3 7.0
2018-May-16 04:51N 57°37' E 006°51'3 6.8
2018-May-16 04:25N 57°35' E 006°47'3 6.9
2018-May-16 04:01N 57°33' E 006°44'7 8.5
2018-May-16 03:11N 57°28' E 006°35'2 8.5
2018-May-16 02:59N 57°27' E 006°33'4 7.2
2018-May-16 02:29N 57°24' E 006°28'27 6.1
2018-May-15 22:07N 57°06' E 005°51'71 1.9
2018-May-14 08:45N 55°55' E 005°49'2 5.3
2018-May-14 08:26N 55°54' E 005°48'  

Dump ship's entire track history